sensor_id;sensor_type;location;lat;lon;timestamp;P1;durP1;ratioP1;P2;durP2;ratioP2
4359;SDS011;2193;47.980;7.660;2022-12-18T00:02:00;59.20;;;18.10;;
4359;SDS011;2193;47.980;7.660;2022-12-18T00:04:26;58.50;;;17.00;;
4359;SDS011;2193;47.980;7.660;2022-12-18T00:06:51;67.97;;;21.20;;
4359;SDS011;2193;47.980;7.660;2022-12-18T00:09:16;64.73;;;18.80;;
4359;SDS011;2193;47.980;7.660;2022-12-18T00:11:42;77.47;;;20.73;;
4359;SDS011;2193;47.980;7.660;2022-12-18T00:14:09;61.70;;;18.07;;
4359;SDS011;2193;47.980;7.660;2022-12-18T00:16:35;60.25;;;18.13;;
4359;SDS011;2193;47.980;7.660;2022-12-18T00:19:01;59.05;;;18.40;;
4359;SDS011;2193;47.980;7.660;2022-12-18T00:21:27;53.63;;;17.57;;
4359;SDS011;2193;47.980;7.660;2022-12-18T00:23:53;54.08;;;19.63;;
4359;SDS011;2193;47.980;7.660;2022-12-18T00:26:25;54.43;;;17.77;;
4359;SDS011;2193;47.980;7.660;2022-12-18T00:28:51;50.30;;;16.60;;
4359;SDS011;2193;47.980;7.660;2022-12-18T00:31:18;47.83;;;16.30;;
4359;SDS011;2193;47.980;7.660;2022-12-18T00:33:43;51.22;;;16.90;;
4359;SDS011;2193;47.980;7.660;2022-12-18T00:36:13;42.43;;;16.20;;
4359;SDS011;2193;47.980;7.660;2022-12-18T00:38:39;56.78;;;17.63;;
4359;SDS011;2193;47.980;7.660;2022-12-18T00:41:04;44.50;;;16.40;;
4359;SDS011;2193;47.980;7.660;2022-12-18T00:43:30;41.47;;;16.70;;
4359;SDS011;2193;47.980;7.660;2022-12-18T00:45:55;46.10;;;17.00;;
4359;SDS011;2193;47.980;7.660;2022-12-18T00:48:20;45.87;;;17.00;;
4359;SDS011;2193;47.980;7.660;2022-12-18T00:50:47;44.77;;;15.97;;
4359;SDS011;2193;47.980;7.660;2022-12-18T00:53:12;43.10;;;16.38;;
4359;SDS011;2193;47.980;7.660;2022-12-18T00:55:38;57.53;;;17.50;;
4359;SDS011;2193;47.980;7.660;2022-12-18T00:58:04;70.95;;;18.42;;
4359;SDS011;2193;47.980;7.660;2022-12-18T01:00:29;49.37;;;18.03;;
4359;SDS011;2193;47.980;7.660;2022-12-18T01:02:54;49.00;;;18.07;;
4359;SDS011;2193;47.980;7.660;2022-12-18T01:05:19;48.13;;;17.37;;
4359;SDS011;2193;47.980;7.660;2022-12-18T01:07:44;52.83;;;19.13;;
4359;SDS011;2193;47.980;7.660;2022-12-18T01:10:10;42.97;;;16.23;;
4359;SDS011;2193;47.980;7.660;2022-12-18T01:12:37;44.35;;;16.40;;
4359;SDS011;2193;47.980;7.660;2022-12-18T01:15:03;45.05;;;16.90;;
4359;SDS011;2193;47.980;7.660;2022-12-18T01:17:28;42.30;;;14.73;;
4359;SDS011;2193;47.980;7.660;2022-12-18T01:19:53;37.70;;;15.27;;
4359;SDS011;2193;47.980;7.660;2022-12-18T01:22:18;45.60;;;16.10;;
4359;SDS011;2193;47.980;7.660;2022-12-18T01:24:44;45.57;;;16.27;;
4359;SDS011;2193;47.980;7.660;2022-12-18T01:27:09;41.20;;;15.30;;
4359;SDS011;2193;47.980;7.660;2022-12-18T01:29:34;39.40;;;15.37;;
4359;SDS011;2193;47.980;7.660;2022-12-18T01:31:59;42.00;;;14.57;;
4359;SDS011;2193;47.980;7.660;2022-12-18T01:34:24;44.03;;;15.90;;
4359;SDS011;2193;47.980;7.660;2022-12-18T01:36:50;48.87;;;16.60;;
4359;SDS011;2193;47.980;7.660;2022-12-18T01:39:17;39.63;;;15.27;;
4359;SDS011;2193;47.980;7.660;2022-12-18T01:41:42;43.97;;;15.63;;
4359;SDS011;2193;47.980;7.660;2022-12-18T01:47:12;35.13;;;13.68;;
4359;SDS011;2193;47.980;7.660;2022-12-18T01:49:39;44.05;;;15.23;;
4359;SDS011;2193;47.980;7.660;2022-12-18T01:52:04;46.27;;;15.97;;
4359;SDS011;2193;47.980;7.660;2022-12-18T01:54:29;38.07;;;14.37;;
4359;SDS011;2193;47.980;7.660;2022-12-18T01:56:54;49.13;;;17.00;;
4359;SDS011;2193;47.980;7.660;2022-12-18T01:59:19;40.80;;;16.33;;
4359;SDS011;2193;47.980;7.660;2022-12-18T02:01:45;38.03;;;13.80;;
4359;SDS011;2193;47.980;7.660;2022-12-18T02:04:20;42.23;;;15.47;;
4359;SDS011;2193;47.980;7.660;2022-12-18T02:06:46;64.20;;;15.10;;
4359;SDS011;2193;47.980;7.660;2022-12-18T02:09:16;39.97;;;13.80;;
4359;SDS011;2193;47.980;7.660;2022-12-18T02:11:49;44.00;;;14.77;;
4359;SDS011;2193;47.980;7.660;2022-12-18T02:16:51;45.30;;;14.93;;
4359;SDS011;2193;47.980;7.660;2022-12-18T02:21:47;46.10;;;16.38;;
4359;SDS011;2193;47.980;7.660;2022-12-18T02:24:18;40.33;;;16.52;;
4359;SDS011;2193;47.980;7.660;2022-12-18T02:26:47;40.92;;;14.20;;
4359;SDS011;2193;47.980;7.660;2022-12-18T02:29:56;41.78;;;15.00;;
4359;SDS011;2193;47.980;7.660;2022-12-18T02:32:02;34.80;;;14.07;;
4359;SDS011;2193;47.980;7.660;2022-12-18T02:34:30;31.90;;;13.10;;
4359;SDS011;2193;47.980;7.660;2022-12-18T02:36:56;33.42;;;13.88;;
4359;SDS011;2193;47.980;7.660;2022-12-18T02:39:22;34.83;;;13.73;;
4359;SDS011;2193;47.980;7.660;2022-12-18T02:41:48;32.90;;;14.27;;
4359;SDS011;2193;47.980;7.660;2022-12-18T02:44:14;33.90;;;14.00;;
4359;SDS011;2193;47.980;7.660;2022-12-18T02:46:40;31.43;;;12.37;;
4359;SDS011;2193;47.980;7.660;2022-12-18T02:49:10;35.63;;;14.18;;
4359;SDS011;2193;47.980;7.660;2022-12-18T02:51:43;37.88;;;14.35;;
4359;SDS011;2193;47.980;7.660;2022-12-18T02:54:16;37.15;;;14.05;;
4359;SDS011;2193;47.980;7.660;2022-12-18T02:56:46;41.97;;;14.77;;
4359;SDS011;2193;47.980;7.660;2022-12-18T02:59:14;35.25;;;14.80;;
4359;SDS011;2193;47.980;7.660;2022-12-18T03:01:47;37.70;;;15.00;;
4359;SDS011;2193;47.980;7.660;2022-12-18T03:06:46;45.90;;;14.48;;
4359;SDS011;2193;47.980;7.660;2022-12-18T03:09:34;42.67;;;15.13;;
4359;SDS011;2193;47.980;7.660;2022-12-18T03:12:02;40.97;;;14.25;;
4359;SDS011;2193;47.980;7.660;2022-12-18T03:14:46;36.83;;;14.93;;
4359;SDS011;2193;47.980;7.660;2022-12-18T03:17:14;49.05;;;16.23;;
4359;SDS011;2193;47.980;7.660;2022-12-18T03:19:41;43.42;;;15.43;;
4359;SDS011;2193;47.980;7.660;2022-12-18T03:22:08;42.35;;;15.38;;
4359;SDS011;2193;47.980;7.660;2022-12-18T03:24:34;33.67;;;14.43;;
4359;SDS011;2193;47.980;7.660;2022-12-18T03:27:04;45.63;;;15.30;;
4359;SDS011;2193;47.980;7.660;2022-12-18T03:29:38;39.20;;;14.57;;
4359;SDS011;2193;47.980;7.660;2022-12-18T03:32:06;38.53;;;15.23;;
4359;SDS011;2193;47.980;7.660;2022-12-18T03:34:35;43.95;;;15.60;;
4359;SDS011;2193;47.980;7.660;2022-12-18T03:37:00;35.10;;;13.32;;
4359;SDS011;2193;47.980;7.660;2022-12-18T03:39:26;37.50;;;13.97;;
4359;SDS011;2193;47.980;7.660;2022-12-18T03:42:07;43.50;;;14.20;;
4359;SDS011;2193;47.980;7.660;2022-12-18T03:44:44;32.00;;;12.68;;
4359;SDS011;2193;47.980;7.660;2022-12-18T03:52:07;34.85;;;13.55;;
4359;SDS011;2193;47.980;7.660;2022-12-18T03:54:33;39.13;;;14.35;;
4359;SDS011;2193;47.980;7.660;2022-12-18T03:57:03;41.70;;;15.20;;
4359;SDS011;2193;47.980;7.660;2022-12-18T03:59:29;43.88;;;14.85;;
4359;SDS011;2193;47.980;7.660;2022-12-18T04:01:55;38.20;;;15.03;;
4359;SDS011;2193;47.980;7.660;2022-12-18T04:04:22;37.65;;;14.05;;
4359;SDS011;2193;47.980;7.660;2022-12-18T04:06:49;35.78;;;14.27;;
4359;SDS011;2193;47.980;7.660;2022-12-18T04:09:14;42.93;;;13.93;;
4359;SDS011;2193;47.980;7.660;2022-12-18T04:11:40;39.10;;;13.53;;
4359;SDS011;2193;47.980;7.660;2022-12-18T04:14:06;44.38;;;14.13;;
4359;SDS011;2193;47.980;7.660;2022-12-18T04:16:31;46.37;;;15.73;;
4359;SDS011;2193;47.980;7.660;2022-12-18T04:18:56;45.80;;;15.97;;
4359;SDS011;2193;47.980;7.660;2022-12-18T04:21:21;50.17;;;14.50;;
4359;SDS011;2193;47.980;7.660;2022-12-18T04:23:47;41.50;;;15.63;;
4359;SDS011;2193;47.980;7.660;2022-12-18T04:26:12;38.60;;;15.00;;
4359;SDS011;2193;47.980;7.660;2022-12-18T04:28:38;56.03;;;15.70;;
4359;SDS011;2193;47.980;7.660;2022-12-18T04:31:03;42.60;;;15.17;;
4359;SDS011;2193;47.980;7.660;2022-12-18T04:33:28;54.70;;;16.77;;
4359;SDS011;2193;47.980;7.660;2022-12-18T04:35:53;46.53;;;16.07;;
4359;SDS011;2193;47.980;7.660;2022-12-18T04:38:19;45.80;;;15.20;;
4359;SDS011;2193;47.980;7.660;2022-12-18T04:40:44;43.80;;;15.50;;
4359;SDS011;2193;47.980;7.660;2022-12-18T04:43:09;44.13;;;16.67;;
4359;SDS011;2193;47.980;7.660;2022-12-18T04:45:34;53.73;;;16.57;;
4359;SDS011;2193;47.980;7.660;2022-12-18T04:48:00;50.13;;;16.63;;
4359;SDS011;2193;47.980;7.660;2022-12-18T04:50:25;51.00;;;15.07;;
4359;SDS011;2193;47.980;7.660;2022-12-18T04:52:51;45.00;;;15.63;;
4359;SDS011;2193;47.980;7.660;2022-12-18T04:55:16;50.00;;;16.67;;
4359;SDS011;2193;47.980;7.660;2022-12-18T04:57:41;46.53;;;16.20;;
4359;SDS011;2193;47.980;7.660;2022-12-18T05:00:07;47.07;;;17.63;;
4359;SDS011;2193;47.980;7.660;2022-12-18T05:02:32;50.63;;;16.70;;
4359;SDS011;2193;47.980;7.660;2022-12-18T05:04:57;43.53;;;15.50;;
4359;SDS011;2193;47.980;7.660;2022-12-18T05:07:22;46.23;;;15.77;;
4359;SDS011;2193;47.980;7.660;2022-12-18T05:09:47;38.87;;;14.13;;
4359;SDS011;2193;47.980;7.660;2022-12-18T05:12:13;45.40;;;15.90;;
4359;SDS011;2193;47.980;7.660;2022-12-18T05:14:38;45.10;;;16.20;;
4359;SDS011;2193;47.980;7.660;2022-12-18T05:17:03;43.80;;;16.40;;
4359;SDS011;2193;47.980;7.660;2022-12-18T05:19:28;42.97;;;15.70;;
4359;SDS011;2193;47.980;7.660;2022-12-18T05:21:53;43.70;;;15.37;;
4359;SDS011;2193;47.980;7.660;2022-12-18T05:24:19;44.17;;;16.53;;
4359;SDS011;2193;47.980;7.660;2022-12-18T05:26:44;45.30;;;16.50;;
4359;SDS011;2193;47.980;7.660;2022-12-18T05:29:09;46.17;;;16.23;;
4359;SDS011;2193;47.980;7.660;2022-12-18T05:31:37;41.67;;;15.93;;
4359;SDS011;2193;47.980;7.660;2022-12-18T05:34:02;49.53;;;15.80;;
4359;SDS011;2193;47.980;7.660;2022-12-18T05:36:27;45.63;;;15.93;;
4359;SDS011;2193;47.980;7.660;2022-12-18T05:38:52;40.27;;;16.00;;
4359;SDS011;2193;47.980;7.660;2022-12-18T05:41:18;42.83;;;15.90;;
4359;SDS011;2193;47.980;7.660;2022-12-18T05:43:43;45.47;;;16.20;;
4359;SDS011;2193;47.980;7.660;2022-12-18T05:46:11;46.30;;;15.70;;
4359;SDS011;2193;47.980;7.660;2022-12-18T05:48:37;51.05;;;16.17;;
4359;SDS011;2193;47.980;7.660;2022-12-18T05:51:03;39.30;;;16.43;;
4359;SDS011;2193;47.980;7.660;2022-12-18T05:53:29;44.40;;;15.73;;
4359;SDS011;2193;47.980;7.660;2022-12-18T05:55:59;45.67;;;16.30;;
4359;SDS011;2193;47.980;7.660;2022-12-18T05:58:24;81.45;;;18.17;;
4359;SDS011;2193;47.980;7.660;2022-12-18T06:00:49;72.93;;;17.87;;
4359;SDS011;2193;47.980;7.660;2022-12-18T06:03:14;83.37;;;18.40;;
4359;SDS011;2193;47.980;7.660;2022-12-18T06:05:43;74.80;;;18.47;;
4359;SDS011;2193;47.980;7.660;2022-12-18T06:08:09;54.72;;;17.40;;
4359;SDS011;2193;47.980;7.660;2022-12-18T06:10:35;45.97;;;17.52;;
4359;SDS011;2193;47.980;7.660;2022-12-18T06:13:00;53.27;;;17.60;;
4359;SDS011;2193;47.980;7.660;2022-12-18T06:15:26;61.20;;;17.33;;
4359;SDS011;2193;47.980;7.660;2022-12-18T06:17:51;57.43;;;17.53;;
4359;SDS011;2193;47.980;7.660;2022-12-18T06:20:16;48.40;;;15.77;;
4359;SDS011;2193;47.980;7.660;2022-12-18T06:22:41;51.53;;;17.30;;
4359;SDS011;2193;47.980;7.660;2022-12-18T06:25:07;45.30;;;16.40;;
4359;SDS011;2193;47.980;7.660;2022-12-18T06:27:32;45.03;;;16.50;;
4359;SDS011;2193;47.980;7.660;2022-12-18T06:29:58;44.33;;;15.20;;
4359;SDS011;2193;47.980;7.660;2022-12-18T06:32:23;42.23;;;15.80;;
4359;SDS011;2193;47.980;7.660;2022-12-18T06:34:49;41.00;;;14.63;;
4359;SDS011;2193;47.980;7.660;2022-12-18T06:37:14;42.70;;;16.03;;
4359;SDS011;2193;47.980;7.660;2022-12-18T06:39:39;36.33;;;14.27;;
4359;SDS011;2193;47.980;7.660;2022-12-18T06:42:04;45.20;;;15.43;;
4359;SDS011;2193;47.980;7.660;2022-12-18T06:44:30;49.50;;;14.20;;
4359;SDS011;2193;47.980;7.660;2022-12-18T06:46:55;113.07;;;16.90;;
4359;SDS011;2193;47.980;7.660;2022-12-18T06:49:20;44.00;;;14.27;;
4359;SDS011;2193;47.980;7.660;2022-12-18T06:51:46;34.67;;;14.07;;
4359;SDS011;2193;47.980;7.660;2022-12-18T06:54:11;49.20;;;14.53;;
4359;SDS011;2193;47.980;7.660;2022-12-18T06:56:36;35.40;;;13.80;;
4359;SDS011;2193;47.980;7.660;2022-12-18T06:59:01;42.93;;;16.40;;
4359;SDS011;2193;47.980;7.660;2022-12-18T07:01:26;47.93;;;15.47;;
4359;SDS011;2193;47.980;7.660;2022-12-18T07:03:55;41.90;;;15.07;;
4359;SDS011;2193;47.980;7.660;2022-12-18T07:06:22;56.28;;;17.23;;
4359;SDS011;2193;47.980;7.660;2022-12-18T07:08:48;54.20;;;17.35;;
4359;SDS011;2193;47.980;7.660;2022-12-18T07:11:13;51.13;;;16.50;;
4359;SDS011;2193;47.980;7.660;2022-12-18T07:13:39;48.77;;;17.70;;
4359;SDS011;2193;47.980;7.660;2022-12-18T07:16:05;44.90;;;16.90;;
4359;SDS011;2193;47.980;7.660;2022-12-18T07:18:30;48.88;;;16.15;;
4359;SDS011;2193;47.980;7.660;2022-12-18T07:20:56;42.43;;;15.97;;
4359;SDS011;2193;47.980;7.660;2022-12-18T07:23:21;45.60;;;15.80;;
4359;SDS011;2193;47.980;7.660;2022-12-18T07:25:46;44.60;;;17.10;;
4359;SDS011;2193;47.980;7.660;2022-12-18T07:28:11;46.57;;;15.93;;
4359;SDS011;2193;47.980;7.660;2022-12-18T07:30:37;52.23;;;16.23;;
4359;SDS011;2193;47.980;7.660;2022-12-18T07:33:03;83.60;;;17.47;;
4359;SDS011;2193;47.980;7.660;2022-12-18T07:35:28;48.27;;;17.67;;
4359;SDS011;2193;47.980;7.660;2022-12-18T07:37:53;53.63;;;18.40;;
4359;SDS011;2193;47.980;7.660;2022-12-18T07:40:18;51.63;;;18.10;;
4359;SDS011;2193;47.980;7.660;2022-12-18T07:42:44;46.23;;;15.63;;
4359;SDS011;2193;47.980;7.660;2022-12-18T07:45:09;51.93;;;17.87;;
4359;SDS011;2193;47.980;7.660;2022-12-18T07:47:35;63.53;;;17.47;;
4359;SDS011;2193;47.980;7.660;2022-12-18T07:50:01;51.95;;;17.50;;
4359;SDS011;2193;47.980;7.660;2022-12-18T07:52:26;59.73;;;16.23;;
4359;SDS011;2193;47.980;7.660;2022-12-18T07:54:51;59.20;;;18.80;;
4359;SDS011;2193;47.980;7.660;2022-12-18T07:57:17;52.53;;;19.70;;
4359;SDS011;2193;47.980;7.660;2022-12-18T07:59:42;53.00;;;18.33;;
4359;SDS011;2193;47.980;7.660;2022-12-18T08:02:08;68.20;;;17.70;;
4359;SDS011;2193;47.980;7.660;2022-12-18T08:04:33;55.53;;;19.37;;
4359;SDS011;2193;47.980;7.660;2022-12-18T08:06:58;57.53;;;16.83;;
4359;SDS011;2193;47.980;7.660;2022-12-18T08:09:23;52.83;;;17.97;;
4359;SDS011;2193;47.980;7.660;2022-12-18T08:11:48;72.47;;;16.57;;
4359;SDS011;2193;47.980;7.660;2022-12-18T08:14:14;46.27;;;15.60;;
4359;SDS011;2193;47.980;7.660;2022-12-18T08:16:39;80.07;;;17.17;;
4359;SDS011;2193;47.980;7.660;2022-12-18T08:19:04;55.47;;;20.93;;
4359;SDS011;2193;47.980;7.660;2022-12-18T08:21:30;54.53;;;18.03;;
4359;SDS011;2193;47.980;7.660;2022-12-18T08:23:56;41.73;;;15.60;;
4359;SDS011;2193;47.980;7.660;2022-12-18T08:26:22;39.85;;;14.98;;
4359;SDS011;2193;47.980;7.660;2022-12-18T08:28:48;61.87;;;21.63;;
4359;SDS011;2193;47.980;7.660;2022-12-18T08:31:13;81.37;;;23.80;;
4359;SDS011;2193;47.980;7.660;2022-12-18T08:33:39;54.73;;;20.40;;
4359;SDS011;2193;47.980;7.660;2022-12-18T08:36:04;58.03;;;17.53;;
4359;SDS011;2193;47.980;7.660;2022-12-18T08:38:30;66.50;;;16.20;;
4359;SDS011;2193;47.980;7.660;2022-12-18T08:41:02;53.10;;;15.50;;
4359;SDS011;2193;47.980;7.660;2022-12-18T08:43:28;83.30;;;15.85;;
4359;SDS011;2193;47.980;7.660;2022-12-18T08:46:12;55.78;;;15.20;;
4359;SDS011;2193;47.980;7.660;2022-12-18T08:48:37;102.10;;;16.90;;
4359;SDS011;2193;47.980;7.660;2022-12-18T08:51:02;86.53;;;16.90;;
4359;SDS011;2193;47.980;7.660;2022-12-18T08:53:28;42.83;;;15.10;;
4359;SDS011;2193;47.980;7.660;2022-12-18T08:55:53;40.43;;;13.80;;
4359;SDS011;2193;47.980;7.660;2022-12-18T08:58:18;42.03;;;16.77;;
4359;SDS011;2193;47.980;7.660;2022-12-18T09:00:44;43.87;;;16.17;;
4359;SDS011;2193;47.980;7.660;2022-12-18T09:03:13;40.43;;;14.13;;
4359;SDS011;2193;47.980;7.660;2022-12-18T09:05:38;69.47;;;24.20;;
4359;SDS011;2193;47.980;7.660;2022-12-18T09:08:03;108.10;;;20.03;;
4359;SDS011;2193;47.980;7.660;2022-12-18T09:10:29;39.93;;;17.00;;
4359;SDS011;2193;47.980;7.660;2022-12-18T09:12:54;53.23;;;22.27;;
4359;SDS011;2193;47.980;7.660;2022-12-18T09:15:21;37.58;;;14.45;;
4359;SDS011;2193;47.980;7.660;2022-12-18T09:17:46;47.37;;;15.23;;
4359;SDS011;2193;47.980;7.660;2022-12-18T09:20:11;60.57;;;16.07;;
4359;SDS011;2193;47.980;7.660;2022-12-18T09:22:36;37.50;;;14.80;;
4359;SDS011;2193;47.980;7.660;2022-12-18T09:25:04;35.10;;;14.50;;
4359;SDS011;2193;47.980;7.660;2022-12-18T09:27:33;39.70;;;15.27;;
4359;SDS011;2193;47.980;7.660;2022-12-18T09:29:58;49.03;;;18.77;;
4359;SDS011;2193;47.980;7.660;2022-12-18T09:32:24;40.70;;;18.07;;
4359;SDS011;2193;47.980;7.660;2022-12-18T09:34:49;41.40;;;16.63;;
4359;SDS011;2193;47.980;7.660;2022-12-18T09:37:14;41.63;;;15.90;;
4359;SDS011;2193;47.980;7.660;2022-12-18T09:39:40;34.70;;;14.07;;
4359;SDS011;2193;47.980;7.660;2022-12-18T09:42:05;38.93;;;14.17;;
4359;SDS011;2193;47.980;7.660;2022-12-18T09:44:41;38.97;;;17.73;;
4359;SDS011;2193;47.980;7.660;2022-12-18T09:47:18;39.67;;;16.30;;
4359;SDS011;2193;47.980;7.660;2022-12-18T09:49:45;35.08;;;15.60;;
4359;SDS011;2193;47.980;7.660;2022-12-18T09:52:19;44.53;;;17.83;;
4359;SDS011;2193;47.980;7.660;2022-12-18T09:54:49;40.70;;;15.80;;
4359;SDS011;2193;47.980;7.660;2022-12-18T09:57:15;28.23;;;13.13;;
4359;SDS011;2193;47.980;7.660;2022-12-18T09:59:42;35.40;;;14.43;;
4359;SDS011;2193;47.980;7.660;2022-12-18T10:02:16;47.78;;;18.50;;
4359;SDS011;2193;47.980;7.660;2022-12-18T10:04:42;42.35;;;17.02;;
4359;SDS011;2193;47.980;7.660;2022-12-18T10:07:10;78.33;;;16.63;;
4359;SDS011;2193;47.980;7.660;2022-12-18T10:09:38;44.47;;;17.58;;
4359;SDS011;2193;47.980;7.660;2022-12-18T10:17:14;39.28;;;17.25;;
4359;SDS011;2193;47.980;7.660;2022-12-18T10:22:28;44.22;;;14.32;;
4359;SDS011;2193;47.980;7.660;2022-12-18T10:25:04;45.42;;;15.07;;
4359;SDS011;2193;47.980;7.660;2022-12-18T10:27:30;48.53;;;19.13;;
4359;SDS011;2193;47.980;7.660;2022-12-18T10:29:56;46.30;;;17.40;;
4359;SDS011;2193;47.980;7.660;2022-12-18T10:32:22;28.10;;;12.80;;
4359;SDS011;2193;47.980;7.660;2022-12-18T10:34:49;35.05;;;13.93;;
4359;SDS011;2193;47.980;7.660;2022-12-18T10:37:15;49.42;;;15.75;;
4359;SDS011;2193;47.980;7.660;2022-12-18T10:39:41;32.45;;;14.50;;
4359;SDS011;2193;47.980;7.660;2022-12-18T10:42:10;38.23;;;14.13;;
4359;SDS011;2193;47.980;7.660;2022-12-18T10:44:37;39.63;;;15.27;;
4359;SDS011;2193;47.980;7.660;2022-12-18T10:47:04;30.00;;;13.40;;
4359;SDS011;2193;47.980;7.660;2022-12-18T10:49:30;33.00;;;14.13;;
4359;SDS011;2193;47.980;7.660;2022-12-18T10:52:05;32.13;;;15.88;;
4359;SDS011;2193;47.980;7.660;2022-12-18T10:54:32;31.63;;;15.10;;
4359;SDS011;2193;47.980;7.660;2022-12-18T10:57:14;34.35;;;16.40;;
4359;SDS011;2193;47.980;7.660;2022-12-18T11:00:18;38.92;;;16.85;;
4359;SDS011;2193;47.980;7.660;2022-12-18T11:02:35;38.67;;;17.35;;
4359;SDS011;2193;47.980;7.660;2022-12-18T11:05:00;39.80;;;17.17;;
4359;SDS011;2193;47.980;7.660;2022-12-18T11:07:26;44.00;;;18.27;;
4359;SDS011;2193;47.980;7.660;2022-12-18T11:10:15;53.10;;;21.67;;
4359;SDS011;2193;47.980;7.660;2022-12-18T11:12:40;38.55;;;16.30;;
4359;SDS011;2193;47.980;7.660;2022-12-18T11:15:05;41.20;;;16.70;;
4359;SDS011;2193;47.980;7.660;2022-12-18T11:17:32;39.50;;;15.60;;
4359;SDS011;2193;47.980;7.660;2022-12-18T11:20:00;41.95;;;17.27;;
4359;SDS011;2193;47.980;7.660;2022-12-18T11:22:29;41.60;;;17.48;;
4359;SDS011;2193;47.980;7.660;2022-12-18T11:27:20;44.30;;;18.37;;
4359;SDS011;2193;47.980;7.660;2022-12-18T11:29:46;37.43;;;16.63;;
4359;SDS011;2193;47.980;7.660;2022-12-18T11:34:39;47.80;;;23.83;;
4359;SDS011;2193;47.980;7.660;2022-12-18T11:37:07;39.42;;;17.40;;
4359;SDS011;2193;47.980;7.660;2022-12-18T11:39:38;42.80;;;20.38;;
4359;SDS011;2193;47.980;7.660;2022-12-18T11:49:55;35.25;;;16.35;;
4359;SDS011;2193;47.980;7.660;2022-12-18T11:52:25;40.55;;;18.45;;
4359;SDS011;2193;47.980;7.660;2022-12-18T11:54:55;45.10;;;19.38;;
4359;SDS011;2193;47.980;7.660;2022-12-18T11:59:52;39.60;;;20.43;;
4359;SDS011;2193;47.980;7.660;2022-12-18T12:17:45;42.28;;;19.90;;
4359;SDS011;2193;47.980;7.660;2022-12-18T12:27:43;44.05;;;21.15;;
4359;SDS011;2193;47.980;7.660;2022-12-18T12:30:24;35.97;;;18.45;;
4359;SDS011;2193;47.980;7.660;2022-12-18T12:38:09;45.45;;;21.08;;
4359;SDS011;2193;47.980;7.660;2022-12-18T12:40:37;49.45;;;24.73;;
4359;SDS011;2193;47.980;7.660;2022-12-18T12:43:49;44.08;;;20.83;;
4359;SDS011;2193;47.980;7.660;2022-12-18T12:45:56;49.15;;;20.85;;
4359;SDS011;2193;47.980;7.660;2022-12-18T12:49:09;41.83;;;20.08;;
4359;SDS011;2193;47.980;7.660;2022-12-18T12:53:38;47.03;;;22.67;;
4359;SDS011;2193;47.980;7.660;2022-12-18T12:56:04;42.70;;;19.83;;
4359;SDS011;2193;47.980;7.660;2022-12-18T13:01:08;40.97;;;21.02;;
4359;SDS011;2193;47.980;7.660;2022-12-18T13:03:41;39.03;;;20.10;;
4359;SDS011;2193;47.980;7.660;2022-12-18T13:06:23;36.75;;;18.60;;
4359;SDS011;2193;47.980;7.660;2022-12-18T13:08:57;34.33;;;16.58;;
4359;SDS011;2193;47.980;7.660;2022-12-18T13:11:34;33.20;;;16.65;;
4359;SDS011;2193;47.980;7.660;2022-12-18T13:14:22;34.60;;;17.75;;
4359;SDS011;2193;47.980;7.660;2022-12-18T13:16:48;34.88;;;17.77;;
4359;SDS011;2193;47.980;7.660;2022-12-18T13:19:21;32.83;;;16.60;;
4359;SDS011;2193;47.980;7.660;2022-12-18T13:21:51;34.45;;;16.27;;
4359;SDS011;2193;47.980;7.660;2022-12-18T13:24:23;43.53;;;23.90;;
4359;SDS011;2193;47.980;7.660;2022-12-18T13:26:49;64.78;;;30.73;;
4359;SDS011;2193;47.980;7.660;2022-12-18T13:29:39;32.80;;;17.10;;
4359;SDS011;2193;47.980;7.660;2022-12-18T13:32:00;36.60;;;18.25;;
4359;SDS011;2193;47.980;7.660;2022-12-18T13:34:26;39.03;;;20.70;;
4359;SDS011;2193;47.980;7.660;2022-12-18T13:36:52;34.35;;;18.42;;
4359;SDS011;2193;47.980;7.660;2022-12-18T13:41:50;34.07;;;16.67;;
4359;SDS011;2193;47.980;7.660;2022-12-18T13:44:24;33.70;;;17.80;;
4359;SDS011;2193;47.980;7.660;2022-12-18T13:46:50;36.83;;;19.10;;
4359;SDS011;2193;47.980;7.660;2022-12-18T13:49:21;37.92;;;20.10;;
4359;SDS011;2193;47.980;7.660;2022-12-18T13:51:48;34.60;;;18.08;;
4359;SDS011;2193;47.980;7.660;2022-12-18T13:56:45;37.28;;;19.23;;
4359;SDS011;2193;47.980;7.660;2022-12-18T13:59:24;38.15;;;19.90;;
4359;SDS011;2193;47.980;7.660;2022-12-18T14:01:51;37.60;;;19.38;;
4359;SDS011;2193;47.980;7.660;2022-12-18T14:06:49;40.08;;;21.17;;
4359;SDS011;2193;47.980;7.660;2022-12-18T14:09:15;40.25;;;19.10;;
4359;SDS011;2193;47.980;7.660;2022-12-18T14:11:45;35.85;;;19.25;;
4359;SDS011;2193;47.980;7.660;2022-12-18T14:14:13;37.25;;;18.60;;
4359;SDS011;2193;47.980;7.660;2022-12-18T14:16:38;37.92;;;18.00;;
4359;SDS011;2193;47.980;7.660;2022-12-18T14:19:08;40.80;;;19.25;;
4359;SDS011;2193;47.980;7.660;2022-12-18T14:21:37;35.92;;;19.55;;
4359;SDS011;2193;47.980;7.660;2022-12-18T14:24:12;38.23;;;18.37;;
4359;SDS011;2193;47.980;7.660;2022-12-18T14:26:38;37.17;;;18.55;;
4359;SDS011;2193;47.980;7.660;2022-12-18T14:31:43;35.35;;;18.13;;
4359;SDS011;2193;47.980;7.660;2022-12-18T14:34:17;36.70;;;18.30;;
4359;SDS011;2193;47.980;7.660;2022-12-18T14:36:53;36.30;;;18.40;;
4359;SDS011;2193;47.980;7.660;2022-12-18T14:39:20;46.83;;;19.60;;
4359;SDS011;2193;47.980;7.660;2022-12-18T14:41:45;43.80;;;19.50;;
4359;SDS011;2193;47.980;7.660;2022-12-18T14:44:13;34.55;;;17.52;;
4359;SDS011;2193;47.980;7.660;2022-12-18T14:46:39;44.73;;;20.20;;
4359;SDS011;2193;47.980;7.660;2022-12-18T14:51:51;43.38;;;20.25;;
4359;SDS011;2193;47.980;7.660;2022-12-18T14:54:18;36.80;;;17.63;;
4359;SDS011;2193;47.980;7.660;2022-12-18T14:56:44;34.20;;;18.02;;
4359;SDS011;2193;47.980;7.660;2022-12-18T14:59:19;37.17;;;18.25;;
4359;SDS011;2193;47.980;7.660;2022-12-18T15:01:46;44.88;;;19.80;;
4359;SDS011;2193;47.980;7.660;2022-12-18T15:04:23;36.50;;;17.35;;
4359;SDS011;2193;47.980;7.660;2022-12-18T15:06:50;36.25;;;17.60;;
4359;SDS011;2193;47.980;7.660;2022-12-18T15:09:27;39.03;;;18.35;;
4359;SDS011;2193;47.980;7.660;2022-12-18T15:11:56;41.67;;;18.50;;
4359;SDS011;2193;47.980;7.660;2022-12-18T15:16:51;36.47;;;17.87;;
4359;SDS011;2193;47.980;7.660;2022-12-18T15:19:17;39.65;;;18.00;;
4359;SDS011;2193;47.980;7.660;2022-12-18T15:21:42;38.77;;;18.40;;
4359;SDS011;2193;47.980;7.660;2022-12-18T15:24:14;40.73;;;18.77;;
4359;SDS011;2193;47.980;7.660;2022-12-18T15:26:41;41.58;;;21.42;;
4359;SDS011;2193;47.980;7.660;2022-12-18T15:29:15;39.30;;;20.00;;
4359;SDS011;2193;47.980;7.660;2022-12-18T15:31:42;52.28;;;26.20;;
4359;SDS011;2193;47.980;7.660;2022-12-18T15:36:32;47.93;;;21.67;;
4359;SDS011;2193;47.980;7.660;2022-12-18T15:39:01;47.55;;;23.55;;
4359;SDS011;2193;47.980;7.660;2022-12-18T15:41:27;43.13;;;21.13;;
4359;SDS011;2193;47.980;7.660;2022-12-18T15:43:52;41.10;;;20.60;;
4359;SDS011;2193;47.980;7.660;2022-12-18T15:46:18;40.63;;;21.07;;
4359;SDS011;2193;47.980;7.660;2022-12-18T15:48:44;44.88;;;23.98;;
4359;SDS011;2193;47.980;7.660;2022-12-18T15:51:11;41.03;;;20.33;;
4359;SDS011;2193;47.980;7.660;2022-12-18T15:53:38;46.60;;;22.50;;
4359;SDS011;2193;47.980;7.660;2022-12-18T15:56:04;45.03;;;23.83;;
4359;SDS011;2193;47.980;7.660;2022-12-18T15:58:48;49.45;;;25.08;;
4359;SDS011;2193;47.980;7.660;2022-12-18T16:01:13;52.43;;;25.80;;
4359;SDS011;2193;47.980;7.660;2022-12-18T16:03:39;65.07;;;32.97;;
4359;SDS011;2193;47.980;7.660;2022-12-18T16:06:04;60.30;;;30.73;;
4359;SDS011;2193;47.980;7.660;2022-12-18T16:08:29;44.30;;;22.97;;
4359;SDS011;2193;47.980;7.660;2022-12-18T16:10:55;43.03;;;22.53;;
4359;SDS011;2193;47.980;7.660;2022-12-18T16:13:21;43.73;;;21.50;;
4359;SDS011;2193;47.980;7.660;2022-12-18T16:15:46;38.67;;;20.10;;
4359;SDS011;2193;47.980;7.660;2022-12-18T16:18:12;46.30;;;21.17;;
4359;SDS011;2193;47.980;7.660;2022-12-18T16:20:37;47.23;;;22.10;;